sensor_id;sensor_type;location;lat;lon;timestamp;temperature;humidity
53314;DHT22;39202;51.468;7.146;2023-09-19T00:00:56;30.80;44.30
53314;DHT22;39202;51.468;7.146;2023-09-19T00:05:58;30.80;44.30
53314;DHT22;39202;51.468;7.146;2023-09-19T00:11:01;30.80;44.30
53314;DHT22;39202;51.468;7.146;2023-09-19T00:16:08;30.80;44.30
53314;DHT22;39202;51.468;7.146;2023-09-19T00:21:11;30.80;44.30
53314;DHT22;39202;51.468;7.146;2023-09-19T00:26:14;30.80;44.30
53314;DHT22;39202;51.468;7.146;2023-09-19T00:31:15;30.80;44.40
53314;DHT22;39202;51.468;7.146;2023-09-19T00:36:17;30.80;44.30
53314;DHT22;39202;51.468;7.146;2023-09-19T00:41:20;30.80;44.40
53314;DHT22;39202;51.468;7.146;2023-09-19T00:46:22;30.80;44.30
53314;DHT22;39202;51.468;7.146;2023-09-19T00:51:24;30.70;44.20
53314;DHT22;39202;51.468;7.146;2023-09-19T00:56:29;30.70;44.30
53314;DHT22;39202;51.468;7.146;2023-09-19T01:01:31;30.70;44.20
53314;DHT22;39202;51.468;7.146;2023-09-19T01:06:33;30.70;44.30
53314;DHT22;39202;51.468;7.146;2023-09-19T01:11:41;30.70;44.30
53314;DHT22;39202;51.468;7.146;2023-09-19T01:16:50;30.70;44.20
53314;DHT22;39202;51.468;7.146;2023-09-19T01:21:59;30.70;44.30
53314;DHT22;39202;51.468;7.146;2023-09-19T01:27:35;30.70;44.70
53314;DHT22;39202;51.468;7.146;2023-09-19T01:32:47;30.70;44.30
53314;DHT22;39202;51.468;7.146;2023-09-19T01:37:52;30.60;44.30
53314;DHT22;39202;51.468;7.146;2023-09-19T01:42:58;30.60;44.30
53314;DHT22;39202;51.468;7.146;2023-09-19T01:48:10;30.60;44.30
53314;DHT22;39202;51.468;7.146;2023-09-19T01:53:19;30.60;44.30
53314;DHT22;39202;51.468;7.146;2023-09-19T01:58:32;30.60;44.30
53314;DHT22;39202;51.468;7.146;2023-09-19T02:03:36;30.60;44.30
53314;DHT22;39202;51.468;7.146;2023-09-19T02:08:40;30.60;44.30
53314;DHT22;39202;51.468;7.146;2023-09-19T02:13:41;30.60;44.30
53314;DHT22;39202;51.468;7.146;2023-09-19T02:18:45;30.60;44.30
53314;DHT22;39202;51.468;7.146;2023-09-19T02:23:47;30.60;44.30
53314;DHT22;39202;51.468;7.146;2023-09-19T02:28:49;30.50;44.30
53314;DHT22;39202;51.468;7.146;2023-09-19T02:33:52;30.60;44.30
53314;DHT22;39202;51.468;7.146;2023-09-19T02:38:54;30.50;44.30
53314;DHT22;39202;51.468;7.146;2023-09-19T02:43:56;30.50;44.30
53314;DHT22;39202;51.468;7.146;2023-09-19T02:49:01;30.50;44.30
53314;DHT22;39202;51.468;7.146;2023-09-19T02:54:04;30.50;44.30
53314;DHT22;39202;51.468;7.146;2023-09-19T02:59:06;30.50;44.30
53314;DHT22;39202;51.468;7.146;2023-09-19T03:04:12;30.50;44.30
53314;DHT22;39202;51.468;7.146;2023-09-19T03:09:14;30.50;44.30
53314;DHT22;39202;51.468;7.146;2023-09-19T03:14:16;30.50;44.30
53314;DHT22;39202;51.468;7.146;2023-09-19T03:19:21;30.50;44.40
53314;DHT22;39202;51.468;7.146;2023-09-19T03:24:24;30.50;44.40
53314;DHT22;39202;51.468;7.146;2023-09-19T03:29:26;30.50;44.40
53314;DHT22;39202;51.468;7.146;2023-09-19T03:34:29;30.50;44.30
53314;DHT22;39202;51.468;7.146;2023-09-19T03:39:31;30.50;44.40
53314;DHT22;39202;51.468;7.146;2023-09-19T03:44:33;30.50;44.40
53314;DHT22;39202;51.468;7.146;2023-09-19T03:49:36;30.50;44.40
53314;DHT22;39202;51.468;7.146;2023-09-19T03:54:38;30.40;44.30
53314;DHT22;39202;51.468;7.146;2023-09-19T03:59:41;30.50;44.40
53314;DHT22;39202;51.468;7.146;2023-09-19T04:04:45;30.40;44.30
53314;DHT22;39202;51.468;7.146;2023-09-19T04:09:47;30.40;44.30
53314;DHT22;39202;51.468;7.146;2023-09-19T04:14:49;30.40;44.30
53314;DHT22;39202;51.468;7.146;2023-09-19T04:19:53;30.40;44.30
53314;DHT22;39202;51.468;7.146;2023-09-19T04:24:55;30.40;44.30
53314;DHT22;39202;51.468;7.146;2023-09-19T04:29:57;30.40;44.30
53314;DHT22;39202;51.468;7.146;2023-09-19T04:35:01;30.40;44.30
53314;DHT22;39202;51.468;7.146;2023-09-19T04:40:07;30.40;44.40
53314;DHT22;39202;51.468;7.146;2023-09-19T04:45:13;30.40;44.40
53314;DHT22;39202;51.468;7.146;2023-09-19T04:50:16;30.30;44.30
53314;DHT22;39202;51.468;7.146;2023-09-19T04:55:18;30.40;44.40
53314;DHT22;39202;51.468;7.146;2023-09-19T05:00:21;30.30;44.30
53314;DHT22;39202;51.468;7.146;2023-09-19T05:05:25;30.40;44.40
53314;DHT22;39202;51.468;7.146;2023-09-19T05:10:28;30.30;44.30
53314;DHT22;39202;51.468;7.146;2023-09-19T05:15:30;30.30;44.40
53314;DHT22;39202;51.468;7.146;2023-09-19T05:20:34;30.40;44.40
53314;DHT22;39202;51.468;7.146;2023-09-19T05:25:39;30.40;44.30
53314;DHT22;39202;51.468;7.146;2023-09-19T05:30:42;30.30;44.20
53314;DHT22;39202;51.468;7.146;2023-09-19T05:35:47;30.40;44.30
53314;DHT22;39202;51.468;7.146;2023-09-19T05:40:49;30.30;44.30
53314;DHT22;39202;51.468;7.146;2023-09-19T05:45:51;30.40;44.40
53314;DHT22;39202;51.468;7.146;2023-09-19T05:50:54;30.30;44.30
53314;DHT22;39202;51.468;7.146;2023-09-19T05:55:56;30.30;44.40
53314;DHT22;39202;51.468;7.146;2023-09-19T06:00:59;30.30;44.40
53314;DHT22;39202;51.468;7.146;2023-09-19T06:06:02;30.30;44.40
53314;DHT22;39202;51.468;7.146;2023-09-19T06:11:04;30.30;44.40
53314;DHT22;39202;51.468;7.146;2023-09-19T06:16:08;30.30;44.40
53314;DHT22;39202;51.468;7.146;2023-09-19T06:21:11;30.30;44.40
53314;DHT22;39202;51.468;7.146;2023-09-19T06:26:13;30.20;44.40
53314;DHT22;39202;51.468;7.146;2023-09-19T06:31:14;30.20;44.10
53314;DHT22;39202;51.468;7.146;2023-09-19T06:36:18;30.30;43.80
53314;DHT22;39202;51.468;7.146;2023-09-19T06:41:20;30.30;43.80
53314;DHT22;39202;51.468;7.146;2023-09-19T06:46:25;30.20;43.60
53314;DHT22;39202;51.468;7.146;2023-09-19T06:51:34;30.20;56.10
53314;DHT22;39202;51.468;7.146;2023-09-19T06:56:36;30.10;42.90
53314;DHT22;39202;51.468;7.146;2023-09-19T07:01:38;30.00;42.80
53314;DHT22;39202;51.468;7.146;2023-09-19T07:06:41;30.00;43.00
53314;DHT22;39202;51.468;7.146;2023-09-19T07:11:43;29.90;43.00
53314;DHT22;39202;51.468;7.146;2023-09-19T07:16:45;29.80;42.80
53314;DHT22;39202;51.468;7.146;2023-09-19T07:21:49;29.80;42.80
53314;DHT22;39202;51.468;7.146;2023-09-19T07:26:51;29.80;42.80
53314;DHT22;39202;51.468;7.146;2023-09-19T07:31:53;29.80;42.90
53314;DHT22;39202;51.468;7.146;2023-09-19T07:36:56;29.70;42.90
53314;DHT22;39202;51.468;7.146;2023-09-19T07:41:58;29.70;42.80
53314;DHT22;39202;51.468;7.146;2023-09-19T07:47:00;29.70;42.80
53314;DHT22;39202;51.468;7.146;2023-09-19T07:52:05;29.80;42.80
53314;DHT22;39202;51.468;7.146;2023-09-19T07:57:08;29.70;42.70
53314;DHT22;39202;51.468;7.146;2023-09-19T08:02:09;29.60;42.60
53314;DHT22;39202;51.468;7.146;2023-09-19T08:07:17;29.60;42.60
53314;DHT22;39202;51.468;7.146;2023-09-19T08:12:19;29.60;42.50
53314;DHT22;39202;51.468;7.146;2023-09-19T08:17:24;29.70;42.60
53314;DHT22;39202;51.468;7.146;2023-09-19T08:22:28;29.60;42.70
53314;DHT22;39202;51.468;7.146;2023-09-19T08:27:30;29.60;42.80
53314;DHT22;39202;51.468;7.146;2023-09-19T08:32:31;29.60;42.60
53314;DHT22;39202;51.468;7.146;2023-09-19T08:37:34;29.60;42.60
53314;DHT22;39202;51.468;7.146;2023-09-19T08:42:49;29.60;42.60
53314;DHT22;39202;51.468;7.146;2023-09-19T08:48:00;29.60;42.40
53314;DHT22;39202;51.468;7.146;2023-09-19T08:53:10;29.60;42.50
53314;DHT22;39202;51.468;7.146;2023-09-19T08:58:14;29.60;42.80
53314;DHT22;39202;51.468;7.146;2023-09-19T09:03:20;29.60;42.70
53314;DHT22;39202;51.468;7.146;2023-09-19T09:08:24;29.60;42.70
53314;DHT22;39202;51.468;7.146;2023-09-19T09:13:27;29.60;42.50
53314;DHT22;39202;51.468;7.146;2023-09-19T09:18:29;29.60;42.50
53314;DHT22;39202;51.468;7.146;2023-09-19T09:23:32;29.60;43.30
53314;DHT22;39202;51.468;7.146;2023-09-19T09:28:35;29.70;42.50
53314;DHT22;39202;51.468;7.146;2023-09-19T09:33:40;29.70;42.40
53314;DHT22;39202;51.468;7.146;2023-09-19T09:38:46;29.70;42.30
53314;DHT22;39202;51.468;7.146;2023-09-19T09:43:49;29.70;42.40
53314;DHT22;39202;51.468;7.146;2023-09-19T09:48:56;29.70;42.30
53314;DHT22;39202;51.468;7.146;2023-09-19T09:54:16;29.80;42.30
53314;DHT22;39202;51.468;7.146;2023-09-19T09:59:19;29.80;42.40
53314;DHT22;39202;51.468;7.146;2023-09-19T10:04:27;29.90;42.40
53314;DHT22;39202;51.468;7.146;2023-09-19T10:09:45;29.90;42.50
53314;DHT22;39202;51.468;7.146;2023-09-19T10:14:48;30.00;42.10
53314;DHT22;39202;51.468;7.146;2023-09-19T10:19:54;30.00;42.10
53314;DHT22;39202;51.468;7.146;2023-09-19T10:24:59;30.00;42.00
53314;DHT22;39202;51.468;7.146;2023-09-19T10:30:06;30.10;42.20
53314;DHT22;39202;51.468;7.146;2023-09-19T10:35:11;30.10;42.30
53314;DHT22;39202;51.468;7.146;2023-09-19T10:40:15;30.20;42.60
53314;DHT22;39202;51.468;7.146;2023-09-19T10:45:18;30.20;41.60
53314;DHT22;39202;51.468;7.146;2023-09-19T10:50:21;30.30;41.90
53314;DHT22;39202;51.468;7.146;2023-09-19T10:55:25;30.20;41.70
53314;DHT22;39202;51.468;7.146;2023-09-19T11:00:30;30.20;41.60
53314;DHT22;39202;51.468;7.146;2023-09-19T11:05:35;30.20;41.70
53314;DHT22;39202;51.468;7.146;2023-09-19T11:10:45;30.20;41.40
53314;DHT22;39202;51.468;7.146;2023-09-19T11:16:04;30.30;41.10
53314;DHT22;39202;51.468;7.146;2023-09-19T11:21:40;30.30;40.90
53314;DHT22;39202;51.468;7.146;2023-09-19T11:26:44;30.20;40.60
53314;DHT22;39202;51.468;7.146;2023-09-19T11:31:48;30.30;41.00
53314;DHT22;39202;51.468;7.146;2023-09-19T11:36:51;30.30;41.00
53314;DHT22;39202;51.468;7.146;2023-09-19T11:41:56;30.30;40.90
53314;DHT22;39202;51.468;7.146;2023-09-19T11:46:58;30.30;40.40
53314;DHT22;39202;51.468;7.146;2023-09-19T11:52:01;30.30;40.40
53314;DHT22;39202;51.468;7.146;2023-09-19T11:57:07;30.30;40.40
53314;DHT22;39202;51.468;7.146;2023-09-19T12:02:16;30.30;40.40
53314;DHT22;39202;51.468;7.146;2023-09-19T12:07:29;30.30;40.20
53314;DHT22;39202;51.468;7.146;2023-09-19T12:12:32;30.30;40.40
53314;DHT22;39202;51.468;7.146;2023-09-19T12:17:38;30.30;40.20
53314;DHT22;39202;51.468;7.146;2023-09-19T12:22:41;30.30;39.60
53314;DHT22;39202;51.468;7.146;2023-09-19T12:27:46;30.20;39.20
53314;DHT22;39202;51.468;7.146;2023-09-19T12:32:48;30.10;39.30
53314;DHT22;39202;51.468;7.146;2023-09-19T12:37:51;30.10;39.20
53314;DHT22;39202;51.468;7.146;2023-09-19T12:42:57;30.10;39.00
53314;DHT22;39202;51.468;7.146;2023-09-19T12:48:19;30.00;39.00
53314;DHT22;39202;51.468;7.146;2023-09-19T12:53:25;30.00;38.70
53314;DHT22;39202;51.468;7.146;2023-09-19T12:58:31;29.90;39.00
53314;DHT22;39202;51.468;7.146;2023-09-19T13:03:34;29.90;39.00
53314;DHT22;39202;51.468;7.146;2023-09-19T13:08:38;29.90;39.00
53314;DHT22;39202;51.468;7.146;2023-09-19T13:13:44;30.00;39.00
53314;DHT22;39202;51.468;7.146;2023-09-19T13:18:50;30.00;38.80
53314;DHT22;39202;51.468;7.146;2023-09-19T13:23:55;30.00;38.80
53314;DHT22;39202;51.468;7.146;2023-09-19T13:29:01;30.10;38.70
53314;DHT22;39202;51.468;7.146;2023-09-19T13:34:03;30.10;38.60
53314;DHT22;39202;51.468;7.146;2023-09-19T13:39:05;30.10;38.60
53314;DHT22;39202;51.468;7.146;2023-09-19T13:44:10;30.10;38.70
53314;DHT22;39202;51.468;7.146;2023-09-19T13:49:13;30.10;38.90
53314;DHT22;39202;51.468;7.146;2023-09-19T13:54:14;30.20;39.10
53314;DHT22;39202;51.468;7.146;2023-09-19T13:59:17;30.20;39.20
53314;DHT22;39202;51.468;7.146;2023-09-19T14:04:20;30.30;39.30
53314;DHT22;39202;51.468;7.146;2023-09-19T14:09:22;30.40;39.50
53314;DHT22;39202;51.468;7.146;2023-09-19T14:14:26;30.40;39.60
53314;DHT22;39202;51.468;7.146;2023-09-19T14:19:28;30.50;39.70
53314;DHT22;39202;51.468;7.146;2023-09-19T14:24:30;30.60;39.80
53314;DHT22;39202;51.468;7.146;2023-09-19T14:29:33;30.60;39.80
53314;DHT22;39202;51.468;7.146;2023-09-19T14:34:35;30.60;39.90
53314;DHT22;39202;51.468;7.146;2023-09-19T14:39:42;30.70;40.00
53314;DHT22;39202;51.468;7.146;2023-09-19T14:44:46;30.70;40.00
53314;DHT22;39202;51.468;7.146;2023-09-19T14:49:49;30.80;40.20
53314;DHT22;39202;51.468;7.146;2023-09-19T14:54:50;30.80;40.20
53314;DHT22;39202;51.468;7.146;2023-09-19T14:59:55;30.80;40.20
53314;DHT22;39202;51.468;7.146;2023-09-19T15:04:56;30.80;40.30
53314;DHT22;39202;51.468;7.146;2023-09-19T15:09:58;30.90;40.40
53314;DHT22;39202;51.468;7.146;2023-09-19T15:15:01;30.90;40.40
53314;DHT22;39202;51.468;7.146;2023-09-19T15:20:06;30.90;40.50
53314;DHT22;39202;51.468;7.146;2023-09-19T15:25:08;30.90;40.60
53314;DHT22;39202;51.468;7.146;2023-09-19T15:30:12;30.90;40.60
53314;DHT22;39202;51.468;7.146;2023-09-19T15:35:15;31.00;40.70
53314;DHT22;39202;51.468;7.146;2023-09-19T15:40:18;31.00;40.70
53314;DHT22;39202;51.468;7.146;2023-09-19T15:45:21;31.00;40.70
53314;DHT22;39202;51.468;7.146;2023-09-19T15:50:23;31.00;40.70
53314;DHT22;39202;51.468;7.146;2023-09-19T15:55:26;31.00;40.80
53314;DHT22;39202;51.468;7.146;2023-09-19T16:00:29;31.00;40.80
53314;DHT22;39202;51.468;7.146;2023-09-19T16:05:35;31.10;40.90
53314;DHT22;39202;51.468;7.146;2023-09-19T16:10:37;31.10;40.30
53314;DHT22;39202;51.468;7.146;2023-09-19T16:15:43;31.00;40.10
53314;DHT22;39202;51.468;7.146;2023-09-19T16:20:44;31.00;40.00
53314;DHT22;39202;51.468;7.146;2023-09-19T16:25:47;31.00;40.00
53314;DHT22;39202;51.468;7.146;2023-09-19T16:30:50;31.00;40.00
53314;DHT22;39202;51.468;7.146;2023-09-19T16:35:52;30.90;40.00
53314;DHT22;39202;51.468;7.146;2023-09-19T16:40:55;30.90;40.10
53314;DHT22;39202;51.468;7.146;2023-09-19T16:46:00;30.90;40.10
53314;DHT22;39202;51.468;7.146;2023-09-19T16:51:04;30.90;40.10
53314;DHT22;39202;51.468;7.146;2023-09-19T16:56:09;30.80;40.10
53314;DHT22;39202;51.468;7.146;2023-09-19T17:01:14;30.80;40.20
53314;DHT22;39202;51.468;7.146;2023-09-19T17:06:17;30.80;40.60
53314;DHT22;39202;51.468;7.146;2023-09-19T17:11:22;30.70;40.20
53314;DHT22;39202;51.468;7.146;2023-09-19T17:16:25;30.70;40.20
53314;DHT22;39202;51.468;7.146;2023-09-19T17:21:29;30.70;40.20
53314;DHT22;39202;51.468;7.146;2023-09-19T17:26:31;30.70;40.20
53314;DHT22;39202;51.468;7.146;2023-09-19T17:31:35;30.60;40.20
53314;DHT22;39202;51.468;7.146;2023-09-19T17:36:40;30.60;40.30
53314;DHT22;39202;51.468;7.146;2023-09-19T17:41:43;30.60;40.30
53314;DHT22;39202;51.468;7.146;2023-09-19T17:46:46;30.60;40.30
53314;DHT22;39202;51.468;7.146;2023-09-19T17:51:49;30.50;40.30
53314;DHT22;39202;51.468;7.146;2023-09-19T17:56:51;30.50;40.30
53314;DHT22;39202;51.468;7.146;2023-09-19T18:01:54;30.50;40.40
53314;DHT22;39202;51.468;7.146;2023-09-19T18:06:55;30.50;40.40
53314;DHT22;39202;51.468;7.146;2023-09-19T18:11:57;30.50;41.10
53314;DHT22;39202;51.468;7.146;2023-09-19T18:17:00;30.50;40.50
53314;DHT22;39202;51.468;7.146;2023-09-19T18:22:02;30.50;40.50
53314;DHT22;39202;51.468;7.146;2023-09-19T18:27:05;30.50;40.50
53314;DHT22;39202;51.468;7.146;2023-09-19T18:32:09;30.40;40.50
53314;DHT22;39202;51.468;7.146;2023-09-19T18:37:10;30.40;40.50
53314;DHT22;39202;51.468;7.146;2023-09-19T18:42:12;30.40;40.60
53314;DHT22;39202;51.468;7.146;2023-09-19T18:47:15;30.40;40.60
53314;DHT22;39202;51.468;7.146;2023-09-19T18:52:17;30.40;40.70
53314;DHT22;39202;51.468;7.146;2023-09-19T18:57:19;30.40;40.70
53314;DHT22;39202;51.468;7.146;2023-09-19T19:02:22;30.30;40.70
53314;DHT22;39202;51.468;7.146;2023-09-19T19:07:24;30.30;40.70
53314;DHT22;39202;51.468;7.146;2023-09-19T19:12:26;30.30;40.80
53314;DHT22;39202;51.468;7.146;2023-09-19T19:17:29;30.30;40.80
53314;DHT22;39202;51.468;7.146;2023-09-19T19:22:31;30.30;40.80
53314;DHT22;39202;51.468;7.146;2023-09-19T19:27:34;30.30;40.80
53314;DHT22;39202;51.468;7.146;2023-09-19T19:32:37;30.30;40.90
53314;DHT22;39202;51.468;7.146;2023-09-19T19:37:39;30.20;40.90
53314;DHT22;39202;51.468;7.146;2023-09-19T19:42:41;30.20;40.90
53314;DHT22;39202;51.468;7.146;2023-09-19T19:47:44;30.20;40.90
53314;DHT22;39202;51.468;7.146;2023-09-19T19:52:50;30.20;41.00
53314;DHT22;39202;51.468;7.146;2023-09-19T19:57:53;30.20;41.00
53314;DHT22;39202;51.468;7.146;2023-09-19T20:02:56;30.20;41.60
53314;DHT22;39202;51.468;7.146;2023-09-19T20:07:58;30.20;41.70
53314;DHT22;39202;51.468;7.146;2023-09-19T20:13:00;30.20;41.00
53314;DHT22;39202;51.468;7.146;2023-09-19T20:18:09;30.20;41.10
53314;DHT22;39202;51.468;7.146;2023-09-19T20:23:12;30.20;41.10
53314;DHT22;39202;51.468;7.146;2023-09-19T20:28:15;30.20;41.10
53314;DHT22;39202;51.468;7.146;2023-09-19T20:33:18;30.10;41.70
53314;DHT22;39202;51.468;7.146;2023-09-19T20:38:20;30.10;41.20
53314;DHT22;39202;51.468;7.146;2023-09-19T20:43:23;30.10;41.10
53314;DHT22;39202;51.468;7.146;2023-09-19T20:48:26;30.10;41.20
53314;DHT22;39202;51.468;7.146;2023-09-19T20:53:28;30.10;41.20
53314;DHT22;39202;51.468;7.146;2023-09-19T20:58:31;30.10;41.20
53314;DHT22;39202;51.468;7.146;2023-09-19T21:03:36;30.10;41.20
53314;DHT22;39202;51.468;7.146;2023-09-19T21:08:41;30.10;41.20
53314;DHT22;39202;51.468;7.146;2023-09-19T21:13:44;30.10;41.30
53314;DHT22;39202;51.468;7.146;2023-09-19T21:18:50;30.10;41.30
53314;DHT22;39202;51.468;7.146;2023-09-19T21:23:51;30.10;41.30
53314;DHT22;39202;51.468;7.146;2023-09-19T21:28:54;30.00;41.30
53314;DHT22;39202;51.468;7.146;2023-09-19T21:33:59;30.00;41.30
53314;DHT22;39202;51.468;7.146;2023-09-19T21:39:00;30.00;41.30
53314;DHT22;39202;51.468;7.146;2023-09-19T21:44:03;30.00;41.30
53314;DHT22;39202;51.468;7.146;2023-09-19T21:49:06;30.00;41.30
53314;DHT22;39202;51.468;7.146;2023-09-19T21:54:08;30.00;41.40
53314;DHT22;39202;51.468;7.146;2023-09-19T21:59:10;30.00;41.40
53314;DHT22;39202;51.468;7.146;2023-09-19T22:04:13;30.00;41.40
53314;DHT22;39202;51.468;7.146;2023-09-19T22:09:15;30.00;41.50
53314;DHT22;39202;51.468;7.146;2023-09-19T22:14:17;30.00;41.50
53314;DHT22;39202;51.468;7.146;2023-09-19T22:19:20;29.90;41.40
53314;DHT22;39202;51.468;7.146;2023-09-19T22:24:22;29.90;41.50
53314;DHT22;39202;51.468;7.146;2023-09-19T22:29:24;30.00;41.60
53314;DHT22;39202;51.468;7.146;2023-09-19T22:34:30;29.90;41.60
53314;DHT22;39202;51.468;7.146;2023-09-19T22:39:32;29.90;41.60
53314;DHT22;39202;51.468;7.146;2023-09-19T22:44:35;29.90;41.60
53314;DHT22;39202;51.468;7.146;2023-09-19T22:49:39;29.90;41.60
53314;DHT22;39202;51.468;7.146;2023-09-19T22:54:42;29.90;41.60
53314;DHT22;39202;51.468;7.146;2023-09-19T22:59:44;29.90;41.60
53314;DHT22;39202;51.468;7.146;2023-09-19T23:04:47;29.90;41.60
53314;DHT22;39202;51.468;7.146;2023-09-19T23:09:49;29.90;41.60
53314;DHT22;39202;51.468;7.146;2023-09-19T23:14:51;29.80;41.60
53314;DHT22;39202;51.468;7.146;2023-09-19T23:19:55;29.90;41.70
53314;DHT22;39202;51.468;7.146;2023-09-19T23:24:59;29.80;41.70
53314;DHT22;39202;51.468;7.146;2023-09-19T23:30:13;29.70;41.60
53314;DHT22;39202;51.468;7.146;2023-09-19T23:35:19;29.90;41.80
53314;DHT22;39202;51.468;7.146;2023-09-19T23:40:23;29.90;41.80
53314;DHT22;39202;51.468;7.146;2023-09-19T23:45:27;29.90;41.80
53314;DHT22;39202;51.468;7.146;2023-09-19T23:50:31;29.90;41.70
53314;DHT22;39202;51.468;7.146;2023-09-19T23:55:35;29.80;41.70
